createdAt,value
2023-07-18T00:02:38.268Z,100383.91
2023-07-18T00:05:42.675Z,100382.78
2023-07-18T00:08:46.109Z,100392.94
2023-07-18T00:11:49.245Z,100386.69
2023-07-18T00:14:52.093Z,100387.19
2023-07-18T00:17:55.242Z,100400.44
2023-07-18T00:20:58.105Z,100402.56
2023-07-18T00:24:03.998Z,100397.22
2023-07-18T00:27:07.165Z,100404.28
2023-07-18T00:30:14.133Z,100405.91
2023-07-18T00:33:17.343Z,100408.69
2023-07-18T00:36:20.176Z,100406.38
2023-07-18T00:39:22.969Z,100401.31
2023-07-18T00:42:26.609Z,100410.16
2023-07-18T00:45:30.607Z,100407.63
2023-07-18T00:48:37.142Z,100409.44
2023-07-18T00:51:40.980Z,100402.22
2023-07-18T00:54:51.444Z,100398.50
2023-07-18T00:57:55.267Z,100402.56
2023-07-18T01:00:58.651Z,100387.38
2023-07-18T01:04:01.656Z,100407.47
2023-07-18T01:07:06.416Z,100401.13
2023-07-18T01:10:45.020Z,100404.56
2023-07-18T01:13:48.698Z,100411.75
2023-07-18T01:16:53.696Z,100407.63
2023-07-18T01:19:57.681Z,100406.31
2023-07-18T01:23:02.139Z,100405.75
2023-07-18T01:26:05.629Z,100401.28
2023-07-18T01:29:09.895Z,100417.16
2023-07-18T01:32:12.795Z,100406.88
2023-07-18T01:35:18.389Z,100399.22
2023-07-18T01:38:22.311Z,100401.88
2023-07-18T01:41:25.228Z,100402.72
2023-07-18T01:44:28.176Z,100406.00
2023-07-18T01:47:34.439Z,100405.19
2023-07-18T01:50:37.314Z,100398.78
2023-07-18T01:53:40.062Z,100415.41
2023-07-18T01:56:43.141Z,100410.19
2023-07-18T01:59:45.933Z,100412.16
2023-07-18T02:02:51.787Z,100404.97
2023-07-18T02:05:54.687Z,100406.22
2023-07-18T02:09:00.008Z,100416.28
2023-07-18T02:12:04.344Z,100411.16
2023-07-18T02:15:08.008Z,100410.28
2023-07-18T02:18:14.914Z,100415.16
2023-07-18T02:21:18.008Z,100415.06
2023-07-18T02:24:21.166Z,100428.22
2023-07-18T02:27:23.912Z,100431.25
2023-07-18T02:30:26.668Z,100435.69
2023-07-18T02:33:31.297Z,100425.09
2023-07-18T02:36:34.658Z,100437.19
2023-07-18T02:39:40.031Z,100441.22
2023-07-18T02:42:42.883Z,100439.28
2023-07-18T02:45:46.968Z,100429.63
2023-07-18T02:48:51.445Z,100435.00
2023-07-18T02:51:54.519Z,100431.06
2023-07-18T02:54:58.515Z,100430.31
2023-07-18T02:58:02.566Z,100425.44
2023-07-18T03:01:07.829Z,100430.66
2023-07-18T03:04:10.790Z,100437.81
2023-07-18T03:07:14.977Z,100441.56
2023-07-18T03:10:18.293Z,100445.97
2023-07-18T03:13:26.025Z,100457.22
2023-07-18T03:16:28.811Z,100467.38
2023-07-18T03:19:33.047Z,100461.13
2023-07-18T03:22:37.135Z,100462.72
2023-07-18T03:25:39.956Z,100464.88
2023-07-18T03:28:42.734Z,100464.50
2023-07-18T03:31:45.835Z,100463.66
2023-07-18T03:34:48.899Z,100470.50
2023-07-18T03:37:54.243Z,100471.69
2023-07-18T03:41:00.049Z,100467.59
2023-07-18T03:44:04.902Z,100475.53
2023-07-18T03:47:20.123Z,100463.06
2023-07-18T03:50:25.008Z,100468.63
2023-07-18T03:53:28.965Z,100472.13
2023-07-18T03:56:32.698Z,100481.00
2023-07-18T03:59:35.990Z,100476.84
2023-07-18T04:02:38.818Z,100474.41
2023-07-18T04:05:41.589Z,100475.91
2023-07-18T04:08:44.676Z,100478.16
2023-07-18T04:11:47.846Z,100480.41
2023-07-18T04:14:51.470Z,100475.97
2023-07-18T04:17:54.275Z,100490.03
2023-07-18T04:21:03.762Z,100494.59
2023-07-18T04:24:10.237Z,100486.16
2023-07-18T04:27:13.620Z,100498.44
2023-07-18T04:30:16.412Z,100496.88
2023-07-18T04:33:19.177Z,100496.38
2023-07-18T04:36:22.898Z,100495.34
2023-07-18T04:39:26.234Z,100498.34
2023-07-18T04:42:29.362Z,100496.97
2023-07-18T04:45:32.790Z,100499.19
2023-07-18T04:48:36.277Z,100504.81
2023-07-18T04:51:39.406Z,100499.28
2023-07-18T04:54:44.368Z,100503.59
2023-07-18T04:57:48.442Z,100502.63
2023-07-18T05:00:51.474Z,100510.34
2023-07-18T05:03:58.062Z,100507.41
2023-07-18T05:07:01.429Z,100507.69
2023-07-18T05:10:04.759Z,100523.91
2023-07-18T05:13:08.156Z,100527.13
2023-07-18T05:16:13.768Z,100525.00
2023-07-18T05:19:16.980Z,100541.28
2023-07-18T05:22:19.752Z,100533.03
2023-07-18T05:25:23.019Z,100534.91
2023-07-18T05:28:25.995Z,100530.63
2023-07-18T05:31:31.953Z,100530.88
2023-07-18T05:34:34.797Z,100535.69
2023-07-18T05:37:41.477Z,100537.53
2023-07-18T05:40:44.346Z,100530.84
2023-07-18T05:43:47.102Z,100532.47
2023-07-18T05:46:49.870Z,100540.22
2023-07-18T05:49:52.655Z,100532.72
2023-07-18T05:52:55.620Z,100540.47
2023-07-18T05:55:58.565Z,100549.00
2023-07-18T05:59:01.716Z,100554.34
2023-07-18T06:02:05.447Z,100558.34
2023-07-18T06:05:09.059Z,100557.81
2023-07-18T06:08:12.112Z,100562.59
2023-07-18T06:11:18.871Z,100559.59
2023-07-18T06:14:22.322Z,100561.50
2023-07-18T06:17:25.129Z,100567.63
2023-07-18T06:20:28.250Z,100560.47
2023-07-18T06:23:31.407Z,100569.00
2023-07-18T06:26:34.620Z,100560.47
2023-07-18T06:29:37.537Z,100563.41
2023-07-18T06:32:41.271Z,100568.22
2023-07-18T06:35:52.996Z,100560.47
2023-07-18T06:38:55.955Z,100562.59
2023-07-18T06:41:59.055Z,100564.97
2023-07-18T06:45:01.857Z,100572.19
2023-07-18T06:48:05.134Z,100567.09
2023-07-18T06:51:16.012Z,100568.94
2023-07-18T06:54:20.194Z,100556.16
2023-07-18T06:57:23.618Z,100559.44
2023-07-18T07:00:26.739Z,100552.50
2023-07-18T07:03:31.361Z,100569.22
2023-07-18T07:06:34.635Z,100556.34
2023-07-18T07:09:37.663Z,100563.28
2023-07-18T07:12:40.785Z,100566.50
2023-07-18T07:15:43.542Z,100573.22
2023-07-18T07:18:50.560Z,100566.91
2023-07-18T07:21:53.347Z,100566.50
2023-07-18T07:24:56.517Z,100570.91
2023-07-18T07:28:00.638Z,100579.97
2023-07-18T07:31:06.804Z,100576.22
2023-07-18T07:34:09.629Z,100575.72
2023-07-18T07:37:12.419Z,100575.72
2023-07-18T07:40:16.636Z,100584.47
2023-07-18T07:43:20.699Z,100577.34
2023-07-18T07:46:24.025Z,100571.03
2023-07-18T07:49:27.469Z,100576.69
2023-07-18T07:52:30.255Z,100571.81
2023-07-18T07:55:33.071Z,100577.69
2023-07-18T07:58:38.177Z,100586.31
2023-07-18T08:01:41.166Z,100588.41
2023-07-18T08:04:44.817Z,100575.03
2023-07-18T08:07:48.009Z,100576.09
2023-07-18T08:10:50.848Z,100576.56
2023-07-18T08:13:54.780Z,100570.13
2023-07-18T08:16:57.729Z,100575.09
2023-07-18T08:20:01.001Z,100574.50
2023-07-18T08:23:04.819Z,100589.31
2023-07-18T08:26:08.409Z,100596.13
2023-07-18T08:29:11.541Z,100590.97
2023-07-18T08:32:14.518Z,100591.34
2023-07-18T08:35:17.345Z,100592.53
2023-07-18T08:38:20.329Z,100589.63
2023-07-18T08:41:23.396Z,100597.44
2023-07-18T08:44:26.370Z,100588.69
2023-07-18T08:47:29.546Z,100591.63
2023-07-18T08:50:34.934Z,100591.78
2023-07-18T08:53:40.936Z,100590.34
2023-07-18T08:56:46.750Z,100600.50
2023-07-18T08:59:50.264Z,100597.88
2023-07-18T09:02:53.111Z,100607.75
2023-07-18T09:05:56.328Z,100597.16
2023-07-18T09:08:59.281Z,100606.56
2023-07-18T09:12:05.514Z,100589.69
2023-07-18T09:15:09.273Z,100600.66
2023-07-18T09:18:14.170Z,100598.06
2023-07-18T09:21:18.013Z,100593.69
2023-07-18T09:24:33.375Z,100597.41
2023-07-18T09:27:39.717Z,100586.47
2023-07-18T09:30:42.753Z,100588.31
2023-07-18T09:33:47.884Z,100595.34
2023-07-18T09:37:02.593Z,100601.59
2023-07-18T09:40:08.382Z,100604.13
2023-07-18T09:43:13.018Z,100593.59
2023-07-18T09:46:17.084Z,100597.81
2023-07-18T09:49:24.719Z,100585.41
2023-07-18T09:52:29.432Z,100573.69
2023-07-18T09:55:35.618Z,100575.84
2023-07-18T09:58:40.592Z,100581.19
2023-07-18T10:01:44.488Z,100572.88
2023-07-18T10:04:49.459Z,100570.31
2023-07-18T10:07:53.240Z,100561.66
2023-07-18T10:11:09.174Z,100569.84
2023-07-18T10:14:13.600Z,100563.09
2023-07-18T10:17:30.700Z,100563.53
2023-07-18T10:20:36.393Z,100569.78
2023-07-18T10:23:42.520Z,100558.47
2023-07-18T10:26:59.134Z,100557.84
2023-07-18T10:30:05.538Z,100545.50
2023-07-18T10:33:20.472Z,100546.31
2023-07-18T10:36:26.735Z,100538.78
2023-07-18T10:39:40.739Z,100536.16
2023-07-18T10:42:44.997Z,100539.19
2023-07-18T10:45:50.541Z,100532.31
2023-07-18T10:48:53.995Z,100529.25
2023-07-18T10:51:57.276Z,100528.09
2023-07-18T10:55:01.940Z,100525.09
2023-07-18T10:58:11.291Z,100525.94
2023-07-18T11:01:14.179Z,100518.72
2023-07-18T11:04:17.539Z,100522.00
2023-07-18T11:07:37.113Z,100517.91
2023-07-18T11:10:41.480Z,100507.94
2023-07-18T11:13:44.810Z,100511.84
2023-07-18T11:16:48.704Z,100505.41
2023-07-18T11:19:51.499Z,100509.91
2023-07-18T11:22:54.684Z,100503.53
2023-07-18T11:25:58.611Z,100495.75
2023-07-18T11:29:02.695Z,100501.69
2023-07-18T11:32:06.027Z,100495.66
2023-07-18T11:35:19.357Z,100494.09
2023-07-18T11:38:25.622Z,100482.78
2023-07-18T11:41:36.326Z,100483.75
2023-07-18T11:44:43.718Z,100481.25
2023-07-18T11:47:49.204Z,100479.56
2023-07-18T11:50:52.461Z,100477.72
2023-07-18T11:53:55.673Z,100483.44
2023-07-18T11:56:58.758Z,100465.91
2023-07-18T12:00:02.336Z,100473.91
2023-07-18T12:03:15.666Z,100462.84
2023-07-18T12:06:20.738Z,100458.09
2023-07-18T12:09:24.108Z,100453.75
2023-07-18T12:12:27.404Z,100449.50
2023-07-18T12:15:30.675Z,100456.19
2023-07-18T12:18:34.292Z,100449.25
2023-07-18T12:21:37.772Z,100450.56
2023-07-18T12:24:40.772Z,100441.31
2023-07-18T12:27:46.845Z,100439.28
2023-07-18T12:30:49.664Z,100437.91
2023-07-18T12:33:53.243Z,100427.81
2023-07-18T12:36:56.272Z,100422.28
2023-07-18T12:39:59.035Z,100430.47
2023-07-18T12:43:01.864Z,100410.84
2023-07-18T12:46:07.692Z,100418.34
2023-07-18T12:49:10.847Z,100402.41
2023-07-18T12:52:14.218Z,100409.00
2023-07-18T12:55:17.691Z,100399.81
2023-07-18T12:58:20.490Z,100401.41
2023-07-18T13:01:24.057Z,100395.09
2023-07-18T13:04:26.829Z,100398.63
2023-07-18T13:07:29.938Z,100389.41
2023-07-18T13:10:32.837Z,100380.28
2023-07-18T13:13:35.986Z,100373.72
2023-07-18T13:16:40.548Z,100367.50
2023-07-18T13:19:43.545Z,100367.88
2023-07-18T13:22:47.587Z,100363.78
2023-07-18T13:25:50.604Z,100364.28
2023-07-18T13:28:53.504Z,100352.69
2023-07-18T13:31:56.385Z,100340.53
2023-07-18T13:34:59.829Z,100330.34
2023-07-18T13:38:02.878Z,100336.94
2023-07-18T13:41:09.288Z,100332.09
2023-07-18T13:44:12.314Z,100322.22
2023-07-18T13:47:17.382Z,100324.31
2023-07-18T13:50:31.475Z,100321.41
2023-07-18T13:53:35.339Z,100314.59
2023-07-18T13:56:38.558Z,100316.19
2023-07-18T13:59:46.452Z,100312.81
2023-07-18T14:02:50.880Z,100313.00
2023-07-18T14:05:59.739Z,100307.50
2023-07-18T14:09:02.846Z,100300.78
2023-07-18T14:12:06.634Z,100294.44
2023-07-18T14:15:10.084Z,100290.75
2023-07-18T14:18:13.434Z,100298.84
2023-07-18T14:21:16.645Z,100287.16
2023-07-18T14:24:21.015Z,100282.09
2023-07-18T14:27:23.934Z,100265.13
2023-07-18T14:30:26.729Z,100269.13
2023-07-18T14:33:29.812Z,100275.91
2023-07-18T14:36:32.584Z,100264.84
2023-07-18T14:39:40.783Z,100268.44
2023-07-18T14:42:44.477Z,100267.69
2023-07-18T14:45:47.356Z,100257.13
2023-07-18T14:48:50.444Z,100255.00
2023-07-18T14:51:53.297Z,100258.66
2023-07-18T14:54:58.282Z,100264.91
2023-07-18T14:58:01.753Z,100261.97
2023-07-18T15:01:06.462Z,100253.97
2023-07-18T15:04:09.524Z,100250.34
2023-07-18T15:07:12.407Z,100248.97
2023-07-18T15:10:15.633Z,100241.72
2023-07-18T15:13:18.398Z,100238.75
2023-07-18T15:16:21.663Z,100239.09
2023-07-18T15:19:27.759Z,100227.75
2023-07-18T15:22:30.674Z,100232.47
2023-07-18T15:25:34.675Z,100228.22
2023-07-18T15:28:42.894Z,100228.91
2023-07-18T15:31:45.768Z,100222.91
2023-07-18T15:34:48.601Z,100206.63
2023-07-18T15:37:51.437Z,100196.81
2023-07-18T15:40:54.181Z,100191.06
2023-07-18T15:43:57.733Z,100192.84
2023-07-18T15:47:01.065Z,100202.25
2023-07-18T15:50:04.173Z,100196.75
2023-07-18T15:53:07.033Z,100202.88
2023-07-18T15:56:15.525Z,100202.19
2023-07-18T15:59:19.775Z,100195.28
2023-07-18T16:02:23.236Z,100196.88
2023-07-18T16:05:28.983Z,100189.25
2023-07-18T16:08:34.861Z,100186.72
2023-07-18T16:11:39.382Z,100186.81
2023-07-18T16:14:42.489Z,100181.38
2023-07-18T16:17:45.667Z,100174.97
2023-07-18T16:20:49.196Z,100178.91
2023-07-18T16:23:53.133Z,100188.47
2023-07-18T16:26:55.939Z,100190.47
2023-07-18T16:30:01.898Z,100185.22
2023-07-18T16:33:05.079Z,100174.84
2023-07-18T16:36:08.152Z,100174.03
2023-07-18T16:42:29.636Z,100167.00
2023-07-18T16:45:33.243Z,100176.00
2023-07-18T16:48:36.921Z,100181.28
2023-07-18T16:51:39.919Z,100182.63
2023-07-18T16:54:42.928Z,100176.31
2023-07-18T16:57:47.492Z,100168.81
2023-07-18T17:00:50.655Z,100173.00
2023-07-18T17:03:58.552Z,100174.19
2023-07-18T17:07:01.368Z,100179.88
2023-07-18T17:10:05.731Z,100189.25
2023-07-18T17:13:09.658Z,100192.19
2023-07-18T17:16:15.299Z,100187.50
2023-07-18T17:19:18.103Z,100193.25
2023-07-18T17:22:20.867Z,100191.81
2023-07-18T17:25:25.068Z,100212.44
2023-07-18T17:28:29.920Z,100217.28
2023-07-18T17:31:32.976Z,100207.63
2023-07-18T17:34:36.867Z,100214.59
2023-07-18T17:37:41.456Z,100219.72
2023-07-18T17:40:44.448Z,100225.00
2023-07-18T17:43:47.159Z,100217.38
2023-07-18T17:46:51.103Z,100207.53
2023-07-18T17:49:53.874Z,100200.97
2023-07-18T17:52:57.757Z,100200.25
2023-07-18T17:56:02.007Z,100199.16
2023-07-18T17:59:11.195Z,100199.28
2023-07-18T18:02:14.349Z,100205.66
2023-07-18T18:05:49.195Z,100205.03
2023-07-18T18:08:52.002Z,100200.75
2023-07-18T18:11:57.266Z,100207.69
2023-07-18T18:15:03.927Z,100212.56
2023-07-18T18:18:06.894Z,100230.06
2023-07-18T18:21:10.111Z,100228.66
2023-07-18T18:24:13.187Z,100238.13
2023-07-18T18:27:16.407Z,100245.56
2023-07-18T18:30:19.581Z,100255.34
2023-07-18T18:33:23.405Z,100263.16
2023-07-18T18:36:28.234Z,100259.22
2023-07-18T18:39:31.517Z,100263.47
2023-07-18T18:42:34.990Z,100266.94
2023-07-18T18:45:38.493Z,100266.69
2023-07-18T18:48:41.756Z,100272.50
2023-07-18T18:51:45.299Z,100266.03
2023-07-18T18:54:48.632Z,100265.56
2023-07-18T18:57:52.381Z,100266.94
2023-07-18T19:00:58.340Z,100265.44
2023-07-18T19:04:01.294Z,100281.44
2023-07-18T19:07:05.098Z,100279.06
2023-07-18T19:10:13.921Z,100288.81
2023-07-18T19:13:16.754Z,100300.06
2023-07-18T19:16:32.901Z,100318.94
2023-07-18T19:19:44.430Z,100328.13
2023-07-18T19:22:49.986Z,100340.22
2023-07-18T19:25:52.836Z,100338.34
2023-07-18T19:28:55.672Z,100336.59
2023-07-18T19:31:58.620Z,100343.31
2023-07-18T19:35:04.418Z,100346.09
2023-07-18T19:38:07.419Z,100352.59
2023-07-18T19:41:10.170Z,100343.47
2023-07-18T19:44:14.893Z,100333.06
2023-07-18T19:47:17.918Z,100341.28
2023-07-18T19:50:21.449Z,100335.16
2023-07-18T19:53:25.908Z,100332.25
2023-07-18T19:56:28.758Z,100321.00
2023-07-18T19:59:32.333Z,100337.81
2023-07-18T20:02:35.480Z,100335.69
2023-07-18T20:05:38.918Z,100345.00
2023-07-18T20:08:42.202Z,100346.13
2023-07-18T20:11:45.000Z,100335.94
2023-07-18T20:14:48.528Z,100332.72
2023-07-18T20:17:51.846Z,100308.69
2023-07-18T20:20:54.901Z,100293.72
2023-07-18T20:23:58.302Z,100290.53
2023-07-18T20:27:01.882Z,100269.16
2023-07-18T20:30:09.546Z,100210.91
2023-07-18T20:33:12.270Z,100204.41
2023-07-18T20:36:21.014Z,100180.66
2023-07-18T20:39:27.585Z,100193.88
2023-07-18T20:42:34.679Z,100173.97
2023-07-18T20:45:38.213Z,100154.31
2023-07-18T20:48:41.063Z,100154.38
2023-07-18T20:51:43.893Z,100153.88
2023-07-18T20:54:46.758Z,100134.31
2023-07-18T20:57:49.742Z,100126.28
2023-07-18T21:00:52.604Z,100120.94
2023-07-18T21:03:55.381Z,100141.31
2023-07-18T21:06:59.358Z,100094.56
2023-07-18T21:10:02.190Z,100021.09
2023-07-18T21:13:06.732Z,99959.16
2023-07-18T21:16:12.947Z,99952.34
2023-07-18T21:19:15.828Z,99915.31
2023-07-18T21:22:18.618Z,99822.28
2023-07-18T21:25:21.588Z,99816.28
2023-07-18T21:28:24.417Z,99814.53
2023-07-18T21:31:27.177Z,99828.94
2023-07-18T21:34:30.621Z,99841.66
2023-07-18T21:37:33.338Z,99829.97
2023-07-18T21:40:36.168Z,99795.38
2023-07-18T21:43:39.120Z,99768.88
2023-07-18T21:46:41.983Z,99720.16
2023-07-18T21:49:45.464Z,99652.97
2023-07-18T21:52:48.317Z,99655.56
2023-07-18T21:55:51.074Z,99683.81
2023-07-18T21:58:54.805Z,99719.22
2023-07-18T22:01:58.425Z,99770.56
2023-07-18T22:05:11.607Z,99784.81
2023-07-18T22:08:14.433Z,99959.63
2023-07-18T22:11:17.460Z,99949.94
2023-07-18T22:14:20.781Z,99914.88
2023-07-18T22:17:23.695Z,99951.03
2023-07-18T22:20:26.449Z,99888.25
2023-07-18T22:23:30.350Z,99906.38
2023-07-18T22:26:33.175Z,99950.47
2023-07-18T22:29:36.171Z,99960.88
2023-07-18T22:32:38.999Z,99958.22
2023-07-18T22:35:45.515Z,99960.13
2023-07-18T22:38:48.684Z,99936.19
2023-07-18T22:41:53.191Z,99930.34
2023-07-18T22:44:56.258Z,99940.31
2023-07-18T22:48:00.218Z,99928.94
2023-07-18T22:51:03.256Z,99926.81
2023-07-18T22:54:06.130Z,99937.22
2023-07-18T22:57:09.402Z,99934.25
2023-07-18T23:00:13.818Z,99952.13
2023-07-18T23:03:16.786Z,99936.50
2023-07-18T23:06:19.864Z,99916.56
2023-07-18T23:09:22.949Z,99925.34
2023-07-18T23:12:25.668Z,99909.66
2023-07-18T23:15:30.205Z,99906.47
2023-07-18T23:18:33.027Z,99895.03
2023-07-18T23:21:36.175Z,99900.94
2023-07-18T23:24:41.073Z,99927.25
2023-07-18T23:27:44.342Z,99916.91
2023-07-18T23:30:47.140Z,99900.19
2023-07-18T23:33:49.950Z,99902.00
2023-07-18T23:36:54.094Z,99908.09
2023-07-18T23:39:57.649Z,99906.78
2023-07-18T23:43:00.751Z,99918.50
2023-07-18T23:46:04.667Z,99922.22
2023-07-18T23:49:07.676Z,99925.41
2023-07-18T23:52:10.768Z,99927.81
2023-07-18T23:55:13.729Z,99938.72
2023-07-18T23:58:17.204Z,99945.13
